createdAt,value
2022-12-07T00:03:51.629Z,3.63
2022-12-07T00:08:54.900Z,3.64
2022-12-07T00:14:01.823Z,3.65
2022-12-07T00:19:05.655Z,3.64
2022-12-07T00:24:09.206Z,3.59
2022-12-07T00:29:23.062Z,3.53
2022-12-07T00:34:29.301Z,3.55
2022-12-07T00:39:32.366Z,3.58
2022-12-07T00:44:35.362Z,3.61
2022-12-07T00:49:38.462Z,3.60
2022-12-07T00:54:41.674Z,3.57
2022-12-07T00:59:44.637Z,3.53
2022-12-07T01:04:50.894Z,3.48
2022-12-07T01:09:53.857Z,3.48
2022-12-07T01:14:57.108Z,3.55
2022-12-07T01:20:00.646Z,3.59
2022-12-07T01:25:04.313Z,3.61
2022-12-07T01:30:08.484Z,3.56
2022-12-07T01:35:11.462Z,3.51
2022-12-07T01:40:14.574Z,3.51
2022-12-07T01:45:43.180Z,3.59
2022-12-07T01:50:51.356Z,3.63
2022-12-07T01:55:56.615Z,3.63
2022-12-07T02:00:59.904Z,3.58
2022-12-07T02:06:03.960Z,3.50
2022-12-07T02:11:08.596Z,3.45
2022-12-07T02:16:59.483Z,3.47
2022-12-07T02:22:20.023Z,3.55
2022-12-07T02:27:56.363Z,3.57
2022-12-07T02:33:14.956Z,3.55
2022-12-07T02:38:37.653Z,3.48
2022-12-07T02:43:49.680Z,3.41
2022-12-07T02:48:54.488Z,3.41
2022-12-07T02:54:01.162Z,3.50
2022-12-07T03:00:08.560Z,3.56
2022-12-07T03:05:42.701Z,3.54
2022-12-07T03:11:01.895Z,3.51
2022-12-07T03:16:27.188Z,3.47
2022-12-07T03:21:43.872Z,3.44
2022-12-07T03:26:56.480Z,3.47
2022-12-07T03:32:15.223Z,3.53
2022-12-07T03:37:46.820Z,3.53
2022-12-07T03:42:51.575Z,3.50
2022-12-07T03:48:30.988Z,3.46
2022-12-07T03:53:47.597Z,3.40
2022-12-07T03:58:51.146Z,3.43
2022-12-07T04:03:57.019Z,3.48
2022-12-07T04:08:59.999Z,3.53
2022-12-07T04:14:21.943Z,3.53
2022-12-07T04:19:32.010Z,3.50
2022-12-07T04:24:35.431Z,3.45
2022-12-07T04:29:38.444Z,3.45
2022-12-07T04:34:41.895Z,3.54
2022-12-07T04:39:45.822Z,3.61
2022-12-07T04:44:48.660Z,3.62
2022-12-07T04:49:51.671Z,3.57
2022-12-07T04:54:54.646Z,3.50
2022-12-07T05:00:01.203Z,3.43
2022-12-07T05:05:04.936Z,3.46
2022-12-07T05:10:08.814Z,3.53
2022-12-07T05:15:12.338Z,3.56
2022-12-07T05:20:15.307Z,3.52
2022-12-07T05:25:18.783Z,3.46
2022-12-07T05:30:24.586Z,3.39
2022-12-07T05:35:27.644Z,3.38
2022-12-07T05:40:33.436Z,3.42
2022-12-07T05:45:36.564Z,3.43
2022-12-07T05:50:39.608Z,3.40
2022-12-07T05:55:42.709Z,3.34
2022-12-07T06:00:49.510Z,3.35
2022-12-07T06:05:54.505Z,3.41
2022-12-07T06:11:16.216Z,3.46
2022-12-07T06:16:19.414Z,3.45
2022-12-07T06:21:22.455Z,3.40
2022-12-07T06:26:25.556Z,3.34
2022-12-07T06:31:28.670Z,3.33
2022-12-07T06:36:32.218Z,3.37
2022-12-07T06:41:39.295Z,3.38
2022-12-07T06:46:42.314Z,3.40
2022-12-07T06:51:45.840Z,3.36
2022-12-07T06:56:51.692Z,3.32
2022-12-07T07:01:54.740Z,3.31
2022-12-07T07:07:00.207Z,3.37
2022-12-07T07:12:03.619Z,3.46
2022-12-07T07:17:06.781Z,3.49
2022-12-07T07:22:11.746Z,3.47
2022-12-07T07:27:14.763Z,3.44
2022-12-07T07:32:17.768Z,3.40
2022-12-07T07:37:22.188Z,3.42
2022-12-07T07:42:25.308Z,3.50
2022-12-07T07:47:31.258Z,3.53
2022-12-07T07:52:34.270Z,3.49
2022-12-07T07:57:39.223Z,3.47
2022-12-07T08:02:43.971Z,3.42
2022-12-07T08:07:46.991Z,3.43
2022-12-07T08:13:11.588Z,3.52
2022-12-07T08:18:16.369Z,3.53
2022-12-07T08:23:19.328Z,3.47
2022-12-07T08:28:22.302Z,3.41
2022-12-07T08:33:25.304Z,3.40
2022-12-07T08:38:31.712Z,3.45
2022-12-07T08:43:36.203Z,3.48
2022-12-07T08:48:52.590Z,3.47
2022-12-07T08:53:59.403Z,3.43
2022-12-07T08:59:02.500Z,3.46
2022-12-07T09:04:05.670Z,3.52
2022-12-07T09:09:10.594Z,3.49
2022-12-07T09:14:14.143Z,3.45
2022-12-07T09:19:18.317Z,3.45
2022-12-07T09:24:21.426Z,3.48
2022-12-07T09:29:24.914Z,3.49
2022-12-07T09:34:27.985Z,3.48
2022-12-07T09:39:31.374Z,3.48
2022-12-07T09:44:36.043Z,3.55
2022-12-07T09:49:39.067Z,3.61
2022-12-07T09:54:46.996Z,3.61
2022-12-07T09:59:50.090Z,3.60
2022-12-07T10:04:53.244Z,3.63
2022-12-07T10:09:56.271Z,3.68
2022-12-07T10:15:08.193Z,3.72
2022-12-07T10:20:18.238Z,3.69
2022-12-07T10:25:24.176Z,3.63
2022-12-07T10:30:30.362Z,3.67
2022-12-07T10:35:35.500Z,3.77
2022-12-07T10:40:46.294Z,3.79
2022-12-07T10:46:06.147Z,3.76
2022-12-07T10:51:39.169Z,3.73
2022-12-07T10:56:55.367Z,3.76
2022-12-07T11:02:23.123Z,3.78
2022-12-07T11:07:37.666Z,3.79
2022-12-07T11:13:13.242Z,3.79
2022-12-07T11:18:46.272Z,3.82
2022-12-07T11:24:05.982Z,3.85
2022-12-07T11:29:34.254Z,3.85
2022-12-07T11:34:48.149Z,3.88
2022-12-07T11:40:02.122Z,3.88
2022-12-07T11:45:40.789Z,3.94
2022-12-07T11:50:54.363Z,4.05
2022-12-07T11:56:16.034Z,4.07
2022-12-07T12:01:40.501Z,4.04
2022-12-07T12:06:46.265Z,4.00
2022-12-07T12:18:01.093Z,4.04
2022-12-07T12:23:23.624Z,4.08
2022-12-07T12:28:45.430Z,4.08
2022-12-07T12:34:00.055Z,4.04
2022-12-07T12:39:14.492Z,4.04
2022-12-07T12:44:20.799Z,4.04
2022-12-07T12:49:23.874Z,4.00
2022-12-07T12:54:30.449Z,3.93
2022-12-07T12:59:38.441Z,3.89
2022-12-07T13:04:58.491Z,3.92
2022-12-07T13:10:03.347Z,3.96
2022-12-07T13:15:44.537Z,3.96
2022-12-07T13:20:54.877Z,3.95
2022-12-07T13:26:31.778Z,3.89
2022-12-07T13:31:40.446Z,3.82
2022-12-07T13:36:45.910Z,3.82
2022-12-07T13:41:57.747Z,3.87
2022-12-07T13:47:27.907Z,3.82
2022-12-07T13:52:32.584Z,3.77
2022-12-07T13:57:37.455Z,3.76
2022-12-07T14:03:03.493Z,3.74
2022-12-07T14:08:10.845Z,3.79
2022-12-07T14:13:40.401Z,3.86
2022-12-07T14:18:45.363Z,3.85
2022-12-07T14:24:08.833Z,3.81
2022-12-07T14:29:26.915Z,3.76
2022-12-07T14:34:29.874Z,3.77
2022-12-07T14:39:32.848Z,3.82
2022-12-07T14:44:36.167Z,3.83
2022-12-07T14:49:39.893Z,3.82
2022-12-07T14:54:43.971Z,3.77
2022-12-07T14:59:46.960Z,3.72
2022-12-07T15:04:50.306Z,3.74
2022-12-07T15:09:53.321Z,3.77
2022-12-07T15:14:59.173Z,3.74
2022-12-07T15:20:02.317Z,3.65
2022-12-07T15:25:07.110Z,3.62
2022-12-07T15:30:10.497Z,3.62
2022-12-07T15:35:13.728Z,3.58
2022-12-07T15:40:16.892Z,3.52
2022-12-07T15:45:20.998Z,3.48
2022-12-07T15:50:24.240Z,3.49
2022-12-07T15:55:27.247Z,3.47
2022-12-07T16:00:30.232Z,3.45
2022-12-07T16:05:34.506Z,3.39
2022-12-07T16:10:37.493Z,3.39
2022-12-07T16:15:41.783Z,3.37
2022-12-07T16:20:44.894Z,3.34
2022-12-07T16:25:48.070Z,3.33
2022-12-07T16:31:01.845Z,3.39
2022-12-07T16:36:08.343Z,3.48
2022-12-07T16:41:12.367Z,3.52
2022-12-07T16:46:16.899Z,3.52
2022-12-07T16:51:23.061Z,3.51
2022-12-07T16:56:27.841Z,3.51
2022-12-07T17:01:31.924Z,3.53
2022-12-07T17:06:34.752Z,3.55
2022-12-07T17:11:37.727Z,3.51
2022-12-07T17:16:40.920Z,3.46
2022-12-07T17:21:44.846Z,3.45
2022-12-07T17:26:48.652Z,3.45
2022-12-07T17:31:52.170Z,3.41
2022-12-07T17:36:55.919Z,3.35
2022-12-07T17:42:17.488Z,3.29
2022-12-07T17:47:21.777Z,3.30
2022-12-07T17:53:18.112Z,3.33
2022-12-07T17:58:21.167Z,3.29
2022-12-07T18:03:24.231Z,3.26
2022-12-07T18:08:27.301Z,3.26
2022-12-07T18:13:36.461Z,3.27
2022-12-07T18:18:41.552Z,3.26
2022-12-07T18:23:53.467Z,3.22
2022-12-07T18:29:00.040Z,3.20
2022-12-07T18:34:08.835Z,3.24
2022-12-07T18:39:14.149Z,3.27
2022-12-07T18:44:17.493Z,3.27
2022-12-07T18:49:20.500Z,3.24
2022-12-07T18:54:23.566Z,3.20
2022-12-07T18:59:44.885Z,3.23
2022-12-07T19:04:47.997Z,3.28
2022-12-07T19:09:51.041Z,3.26
2022-12-07T19:14:55.482Z,3.23
2022-12-07T19:19:58.512Z,3.21
2022-12-07T19:25:04.223Z,3.25
2022-12-07T19:30:10.682Z,3.25
2022-12-07T19:35:13.712Z,3.21
2022-12-07T19:40:16.796Z,3.17
2022-12-07T19:45:19.793Z,3.19
2022-12-07T19:50:22.765Z,3.17
2022-12-07T19:55:25.748Z,3.12
2022-12-07T20:00:28.766Z,3.04
2022-12-07T20:05:34.256Z,3.01
2022-12-07T20:10:41.265Z,3.06
2022-12-07T20:15:44.267Z,3.09
2022-12-07T20:20:59.094Z,3.09
2022-12-07T20:26:06.041Z,3.03
2022-12-07T20:31:09.105Z,3.02
2022-12-07T20:36:14.364Z,3.05
2022-12-07T20:41:35.919Z,3.02
2022-12-07T20:46:38.983Z,2.96
2022-12-07T20:51:43.529Z,2.92
2022-12-07T20:56:46.556Z,2.92
2022-12-07T21:01:49.657Z,2.93
2022-12-07T21:06:52.688Z,2.91
2022-12-07T21:11:55.721Z,2.86
2022-12-07T21:16:58.722Z,2.76
2022-12-07T21:22:01.841Z,2.74
2022-12-07T21:27:04.917Z,2.79
2022-12-07T21:32:09.442Z,2.84
2022-12-07T21:37:12.510Z,2.83
2022-12-07T21:42:15.538Z,2.78
2022-12-07T21:47:21.717Z,2.72
2022-12-07T21:52:24.717Z,2.70
2022-12-07T21:57:27.711Z,2.73
2022-12-07T22:02:31.593Z,2.75
2022-12-07T22:07:34.477Z,2.74
2022-12-07T22:12:40.425Z,2.70
2022-12-07T22:17:43.379Z,2.64
2022-12-07T22:22:46.651Z,2.63
2022-12-07T22:27:50.195Z,2.69
2022-12-07T22:32:53.538Z,2.74
2022-12-07T22:37:59.443Z,2.74
2022-12-07T22:43:02.411Z,2.69
2022-12-07T22:48:06.731Z,2.59
2022-12-07T22:53:10.428Z,2.52
2022-12-07T22:58:13.759Z,2.52
2022-12-07T23:03:16.894Z,2.54
2022-12-07T23:08:20.062Z,2.55
2022-12-07T23:13:32.339Z,2.52
2022-12-07T23:18:35.352Z,2.43
2022-12-07T23:23:38.377Z,2.34
2022-12-07T23:28:41.470Z,2.29
2022-12-07T23:33:44.663Z,2.31
2022-12-07T23:38:50.778Z,2.27
2022-12-07T23:43:55.789Z,2.19
2022-12-07T23:49:04.306Z,2.14
2022-12-07T23:54:07.644Z,2.18
2022-12-07T23:59:13.904Z,2.22
